Airport ID:KO69
Update Time (UTC):23/10/2020 06:25
Wind Speed (Knots):4
Wind Direction (Magnetic):310
Temperature (°C):11
Dew Point (°C):11
Humidity (%):99
Altimeter (inHg):29.92
Density Altitude (Feet):
Visibility (Miles):1/4
Clouds (Hundreds of feet):OVC002
Present Weather:FG
METAR:METAR KO69 230620Z AUTO 32004KT 1/4SM FG OVC002 11/11 A2992 RMK A01

The data displayed is for advisory purposes only and is not to be used for flight planning or operations.